Time;durP1;ratioP1;P1;durP2;ratioP2;P2;SDS_P1;SDS_P2;PMS_P1;PMS_P2;Temp;Humidity;BMP_temperature;BMP_pressure;BME280_temperature;BME280_humidity;BME280_pressure;Samples;Min_cycle;Max_cycle;Signal;HPM_P1;HPM_P2
2021/04/11 00:01:33;;;;;;;17.83;13.73;;;;;;;7.33;96.25;100817.91;4105988;28;20035;-75
2021/04/11 00:03:34;;;;;;;18.48;13.00;;;;;;;7.46;96.76;100823.75;4106298;28;20074;-75
2021/04/11 00:05:38;;;;;;;16.13;12.02;;;;;;;7.44;97.60;100828.28;4106245;28;20078;-75
2021/04/11 00:07:40;;;;;;;16.65;11.98;;;;;;;7.31;97.01;100830.31;4106243;28;20395;-75
2021/04/11 00:09:42;;;;;;;18.20;13.15;;;;;;;7.46;97.35;100832.47;4106391;28;20487;-75
2021/04/11 00:11:43;;;;;;;16.35;12.05;;;;;;;7.38;97.92;100826.22;4106298;28;20477;-75
2021/04/11 00:13:44;;;;;;;21.15;14.10;;;;;;;7.44;97.58;100826.50;4106082;28;20027;-75
2021/04/11 00:15:45;;;;;;;19.23;12.60;;;;;;;7.48;96.66;100822.66;4105762;28;20075;-75
2021/04/11 00:17:47;;;;;;;19.00;12.57;;;;;;;7.43;96.23;100822.22;4106149;28;20031;-75
2021/04/11 00:19:48;;;;;;;19.95;13.57;;;;;;;7.48;96.37;100830.50;4106099;28;20113;-75
2021/04/11 00:21:49;;;;;;;22.10;14.30;;;;;;;7.37;94.63;100825.38;4106087;28;20031;-75
2021/04/11 00:23:50;;;;;;;18.35;13.73;;;;;;;7.34;96.53;100825.66;4105958;28;20447;-75
2021/04/11 00:25:52;;;;;;;18.77;13.13;;;;;;;7.24;97.41;100822.97;4105946;28;20075;-75
2021/04/11 00:27:53;;;;;;;18.02;13.55;;;;;;;7.28;96.07;100825.34;4105996;28;20035;-75
2021/04/11 00:29:54;;;;;;;19.88;14.40;;;;;;;7.36;94.79;100823.72;4105109;28;20027;-75
2021/04/11 00:31:55;;;;;;;18.08;13.90;;;;;;;7.20;95.57;100824.19;4105807;28;20027;-75
2021/04/11 00:33:57;;;;;;;20.15;13.20;;;;;;;7.20;97.53;100823.38;4105924;28;20027;-75
2021/04/11 00:36:00;;;;;;;21.63;14.88;;;;;;;7.25;96.75;100834.31;4105714;28;20046;-75
2021/04/11 00:38:02;;;;;;;20.55;14.07;;;;;;;7.12;96.28;100825.81;4105730;28;20041;-75
2021/04/11 00:40:13;;;;;;;19.67;13.45;;;;;;;7.16;95.89;100822.81;4105546;28;20051;-75
2021/04/11 00:42:24;;;;;;;19.55;13.80;;;;;;;7.09;96.54;100818.22;4105810;28;20051;-75
2021/04/11 00:44:25;;;;;;;20.80;14.07;;;;;;;7.10;96.90;100823.34;4105708;28;20039;-75
2021/04/11 00:46:38;;;;;;;17.20;13.05;;;;;;;7.11;96.61;100814.50;4105397;28;20031;-75
2021/04/11 00:48:40;;;;;;;20.58;14.20;;;;;;;7.13;96.33;100819.63;4093779;29;20410;-75
2021/04/11 00:50:48;;;;;;;18.75;14.23;;;;;;;7.17;96.93;100823.63;4105655;28;20494;-75
2021/04/11 00:52:50;;;;;;;20.55;13.68;;;;;;;7.24;97.84;100819.53;4105505;28;20036;-75
2021/04/11 00:54:51;;;;;;;18.15;13.73;;;;;;;7.28;96.82;100817.47;4105332;28;20059;-75
2021/04/11 00:56:53;;;;;;;22.20;13.02;;;;;;;7.13;96.30;100812.59;4120168;28;20536;-75
2021/04/11 00:58:54;;;;;;;22.40;14.40;;;;;;;7.17;96.30;100819.22;4105352;28;20090;-75
2021/04/11 01:00:56;;;;;;;21.73;14.00;;;;;;;7.09;96.52;100815.59;4105298;28;20035;-75
2021/04/11 01:02:58;;;;;;;22.70;14.55;;;;;;;7.14;96.31;100818.66;4105308;28;20027;-75
2021/04/11 01:04:59;;;;;;;22.10;14.35;;;;;;;7.09;96.13;100818.22;4105472;28;20035;-75
2021/04/11 01:07:07;;;;;;;19.92;13.40;;;;;;;7.03;96.05;100810.88;4105421;28;20066;-75
2021/04/11 01:09:33;;;;;;;22.20;15.20;;;;;;;7.01;96.67;100818.06;4105353;28;20402;-75
2021/04/11 01:11:34;;;;;;;23.30;13.80;;;;;;;7.01;97.58;100812.81;4105324;28;20078;-75
2021/04/11 01:13:42;;;;;;;22.10;13.52;;;;;;;6.85;97.52;100812.44;4105202;28;20034;-75
2021/04/11 01:15:43;;;;;;;19.35;13.35;;;;;;;6.87;97.36;100823.66;4104873;28;20073;-75
2021/04/11 01:17:45;;;;;;;19.20;12.80;;;;;;;6.85;96.86;100815.06;4105029;28;20042;-75
2021/04/11 01:19:50;;;;;;;21.80;15.40;;;;;;;6.89;96.72;100816.47;4105300;28;20034;-75
2021/04/11 01:22:16;;;;;;;22.02;14.20;;;;;;;6.87;96.12;100824.47;4105169;28;20031;-75
2021/04/11 01:24:20;;;;;;;20.67;13.95;;;;;;;6.80;97.81;100825.13;4105324;29;20023;-75
2021/04/11 01:26:22;;;;;;;20.33;13.93;;;;;;;6.71;98.22;100824.13;4104985;28;20023;-75
2021/04/11 01:28:31;;;;;;;20.65;14.23;;;;;;;6.71;98.04;100828.53;4119699;28;20043;-75
2021/04/11 01:30:37;;;;;;;23.17;15.00;;;;;;;6.71;98.01;100821.50;4104625;28;20062;-75
2021/04/11 01:32:41;;;;;;;19.70;13.63;;;;;;;6.67;97.91;100826.16;4119597;28;20061;-75
2021/04/11 01:34:43;;;;;;;21.85;14.55;;;;;;;6.77;96.51;100822.75;4104921;28;20039;-75
2021/04/11 01:36:48;;;;;;;21.80;13.85;;;;;;;6.76;96.47;100823.72;4104670;28;20050;-75
2021/04/11 01:38:50;;;;;;;22.00;14.48;;;;;;;6.75;96.83;100830.75;4104621;28;20416;-75
2021/04/11 01:41:17;;;;;;;23.10;15.07;;;;;;;6.77;96.59;100834.09;4104641;28;20050;-75
2021/04/11 01:43:21;;;;;;;23.13;14.00;;;;;;;6.84;95.96;100837.81;4104385;29;20042;-75
2021/04/11 01:45:23;;;;;;;18.87;13.17;;;;;;;6.63;97.05;100829.97;4104700;28;20037;-75
2021/04/11 01:47:24;;;;;;;17.40;13.90;;;;;;;6.75;95.61;100829.94;4119445;28;20031;-75
2021/04/11 01:49:26;;;;;;;19.30;14.20;;;;;;;6.80;95.76;100830.38;4104638;28;20039;-75
2021/04/11 01:51:40;;;;;;;22.17;15.75;;;;;;;6.87;94.81;100826.28;4104481;28;20082;-75
2021/04/11 01:53:43;;;;;;;24.20;14.23;;;;;;;6.87;94.32;100828.91;4104642;28;20039;-75
2021/04/11 01:55:44;;;;;;;24.73;14.77;;;;;;;6.85;94.76;100831.63;4104372;28;20027;-75
2021/04/11 01:57:50;;;;;;;21.10;14.45;;;;;;;6.81;94.11;100818.94;4104500;28;20513;-75
2021/04/11 01:59:59;;;;;;;24.08;14.57;;;;;;;6.75;94.79;100822.88;4104127;28;20035;-75
2021/04/11 02:02:01;;;;;;;23.08;15.43;;;;;;;6.68;94.39;100817.34;4104489;28;20399;-75
2021/04/11 02:04:05;;;;;;;19.58;13.88;;;;;;;6.52;95.64;100822.19;4104458;28;20027;-75
2021/04/11 02:06:10;;;;;;;19.92;13.70;;;;;;;6.46;95.89;100821.88;4104309;28;20066;-75
2021/04/11 02:08:17;;;;;;;21.50;14.60;;;;;;;6.49;95.62;100827.69;4104345;28;20035;-75
2021/04/11 02:10:26;;;;;;;20.95;14.68;;;;;;;6.58;95.28;100824.31;4104416;28;20042;-75
2021/04/11 02:12:27;;;;;;;19.85;14.25;;;;;;;6.42;95.94;100823.09;4104255;28;20019;-75
2021/04/11 02:14:29;;;;;;;24.25;15.60;;;;;;;6.49;95.14;100821.63;4104150;28;20118;-75
2021/04/11 02:16:33;;;;;;;20.98;14.02;;;;;;;6.42;95.95;100834.38;4104047;28;20063;-75
2021/04/11 02:18:35;;;;;;;25.63;15.18;;;;;;;6.43;95.46;100828.19;4104318;28;20406;-75
2021/04/11 02:20:36;;;;;;;23.48;14.38;;;;;;;6.52;95.49;100831.84;4104135;28;20443;-75
2021/04/11 02:22:39;;;;;;;27.25;14.65;;;;;;;6.43;94.84;100828.19;4118846;28;20030;-75
2021/04/11 02:24:42;;;;;;;17.90;13.15;;;;;;;6.35;95.83;100833.25;4104147;28;20035;-75
2021/04/11 02:26:44;;;;;;;23.50;15.02;;;;;;;6.36;95.94;100832.28;4104166;28;20054;-75
2021/04/11 02:28:45;;;;;;;25.88;14.43;;;;;;;6.33;95.75;100832.53;4103995;28;20035;-75
2021/04/11 02:31:17;;;;;;;21.73;14.43;;;;;;;6.39;94.86;100837.25;4103973;28;20031;-75
2021/04/11 02:33:20;;;;;;;21.38;14.27;;;;;;;6.49;94.15;100842.56;4103927;28;20031;-75
2021/04/11 02:35:25;;;;;;;20.15;14.55;;;;;;;6.48;94.47;100839.13;4103790;28;20469;-74
2021/04/11 02:37:30;;;;;;;17.80;13.07;;;;;;;6.27;96.53;100840.91;4103990;28;20166;-75
2021/04/11 02:39:35;;;;;;;20.10;13.57;;;;;;;6.19;97.31;100848.56;4103428;28;20499;-75
2021/04/11 02:41:39;;;;;;;21.05;13.63;;;;;;;6.15;97.62;100848.94;4104057;28;20125;-75
2021/04/11 02:43:41;;;;;;;24.85;14.77;;;;;;;6.17;96.94;100855.72;4103930;28;20556;-75
2021/04/11 02:45:45;;;;;;;27.55;14.50;;;;;;;6.26;96.95;100856.75;4103772;28;20420;-75
2021/04/11 02:47:47;;;;;;;20.77;14.27;;;;;;;6.15;96.65;100859.41;4103821;28;20479;-75
2021/04/11 02:49:52;;;;;;;23.45;13.75;;;;;;;6.16;96.97;100867.13;4103644;28;20038;-75
2021/04/11 02:51:55;;;;;;;23.10;14.65;;;;;;;6.19;95.87;100863.44;4103783;28;20045;-75
2021/04/11 02:54:00;;;;;;;18.98;12.85;;;;;;;6.22;96.30;100864.03;4103377;28;20043;-75
2021/04/11 02:56:02;;;;;;;21.85;14.18;;;;;;;6.35;94.18;100863.84;4103655;28;20031;-75
2021/04/11 02:58:04;;;;;;;22.85;14.32;;;;;;;6.36;94.20;100863.72;4103618;28;20122;-75
2021/04/11 03:00:13;;;;;;;23.55;14.40;;;;;;;6.31;94.92;100871.13;4103523;29;20558;-75
2021/04/11 03:02:15;;;;;;;17.30;12.38;;;;;;;6.24;95.42;100874.38;4103616;28;20486;-74
2021/04/11 03:04:19;;;;;;;22.73;14.05;;;;;;;6.23;95.73;100873.56;4103637;28;20398;-75
2021/04/11 03:06:25;;;;;;;22.90;13.85;;;;;;;6.31;94.63;100873.75;4103799;28;20498;-75
2021/04/11 03:08:35;;;;;;;20.45;13.73;;;;;;;6.28;94.22;100874.00;4103698;28;20038;-75
2021/04/11 03:10:56;;;;;;;21.00;13.65;;;;;;;6.30;94.22;100879.13;4103817;28;20031;-75
2021/04/11 03:13:00;;;;;;;21.15;13.63;;;;;;;6.28;94.61;100873.16;4103743;28;20040;-75
2021/04/11 03:15:02;;;;;;;22.55;13.60;;;;;;;6.31;94.26;100881.59;4103433;28;20422;-75
2021/04/11 03:17:09;;;;;;;23.00;13.88;;;;;;;6.25;94.14;100879.50;4103606;28;20522;-75
2021/04/11 03:19:16;;;;;;;18.65;13.98;;;;;;;6.19;94.29;100880.00;4103551;28;20498;-75
2021/04/11 03:21:18;;;;;;;23.02;14.50;;;;;;;6.14;94.66;100892.63;4103552;28;20039;-75
2021/04/11 03:23:20;;;;;;;23.77;15.10;;;;;;;6.25;94.13;100879.50;4103722;28;20398;-75
2021/04/11 03:25:22;;;;;;;19.70;13.07;;;;;;;6.19;94.48;100877.38;4103459;28;20042;-74
2021/04/11 03:27:38;;;;;;;22.58;13.70;;;;;;;6.07;95.52;100896.69;4103698;28;20034;-74
2021/04/11 03:29:46;;;;;;;26.63;14.45;;;;;;;6.16;95.02;100890.72;4103713;28;20035;-75
2021/04/11 03:32:14;;;;;;;23.75;14.48;;;;;;;6.23;94.25;100891.06;4103572;28;20042;-75
2021/04/11 03:34:18;;;;;;;19.95;13.95;;;;;;;6.25;94.21;100891.75;4115405;28;20506;-75
2021/04/11 03:36:20;;;;;;;17.20;13.23;;;;;;;6.14;93.87;100895.25;4103460;28;20102;-75
2021/04/11 03:38:26;;;;;;;24.88;14.13;;;;;;;6.06;95.12;100903.72;4103120;29;20038;-75
2021/04/11 03:40:30;;;;;;;24.55;14.00;;;;;;;6.14;94.61;100905.72;4091341;29;20023;-75
2021/04/11 03:42:36;;;;;;;23.30;14.20;;;;;;;6.19;94.11;100907.97;4103559;28;20079;-75
2021/04/11 03:44:38;;;;;;;23.65;14.60;;;;;;;6.05;94.66;100901.22;4103444;28;20039;-75
2021/04/11 03:47:08;;;;;;;20.77;13.13;;;;;;;5.94;95.01;100915.16;4103076;28;20027;-75
2021/04/11 03:49:26;;;;;;;21.00;13.32;;;;;;;6.03;94.33;100905.75;4103350;28;20038;-75
2021/04/11 03:51:31;;;;;;;18.05;13.57;;;;;;;6.01;93.98;100918.97;4103342;28;20058;-75
2021/04/11 03:53:47;;;;;;;21.17;13.32;;;;;;;6.08;93.56;100912.28;4103537;28;20447;-75
2021/04/11 03:55:49;;;;;;;19.90;12.88;;;;;;;5.99;94.64;100920.03;4103317;28;20549;-74
2021/04/11 03:57:54;;;;;;;21.38;14.48;;;;;;;6.10;93.34;100920.84;4103211;28;20045;-75
2021/04/11 04:00:13;;;;;;;25.83;14.93;;;;;;;6.04;93.86;100930.97;4103115;28;20034;-75
2021/04/11 04:02:18;;;;;;;21.10;14.30;;;;;;;5.86;94.66;100927.19;4103058;29;20082;-74
2021/04/11 04:04:25;;;;;;;22.85;13.43;;;;;;;5.79;95.47;100919.00;4103309;28;20059;-75
2021/04/11 04:06:30;;;;;;;22.75;13.70;;;;;;;5.80;95.08;100919.78;4106105;28;20438;-75
2021/04/11 04:08:32;;;;;;;22.65;13.63;;;;;;;5.86;95.38;100921.97;4106159;28;20027;-74
2021/04/11 04:10:40;;;;;;;24.35;14.43;;;;;;;5.93;94.22;100929.22;4106105;28;20399;-75
2021/04/11 04:12:57;;;;;;;19.77;13.77;;;;;;;5.88;94.14;100935.78;4105875;28;20031;-75
2021/04/11 04:15:16;;;;;;;21.40;13.65;;;;;;;5.79;95.42;100936.47;4105839;28;20038;-74
2021/04/11 04:17:35;;;;;;;20.55;13.98;;;;;;;5.88;94.17;100938.41;4106171;28;20038;-75
2021/04/11 04:20:05;;;;;;;19.95;14.15;;;;;;;5.81;94.70;100934.56;4106049;28;20065;-74
2021/04/11 04:22:13;;;;;;;23.30;13.90;;;;;;;5.73;94.75;100939.56;4092415;29;20043;-75
2021/04/11 04:25:01;;;;;;;21.55;13.77;;;;;;;5.59;95.67;100944.09;4093591;29;20074;-75
2021/04/11 04:27:28;;;;;;;22.50;14.38;;;;;;;5.70;95.46;100942.44;4091030;29;20487;-74
2021/04/11 04:30:02;;;;;;;23.27;14.23;;;;;;;5.70;95.47;100945.03;4092814;29;20106;-74
2021/04/11 04:32:24;;;;;;;25.08;15.20;;;;;;;5.66;96.02;100944.44;4105740;28;20062;-74
2021/04/11 04:34:32;;;;;;;22.45;14.25;;;;;;;5.70;94.76;100942.44;4105839;28;20114;-74
2021/04/11 04:36:54;;;;;;;24.98;14.52;;;;;;;5.67;96.08;100940.06;4105823;28;20042;-75
2021/04/11 04:39:04;;;;;;;23.50;15.07;;;;;;;5.72;95.56;100943.13;4105465;28;20051;-74
2021/04/11 04:41:09;;;;;;;22.40;14.38;;;;;;;5.79;96.37;100941.72;4105594;28;20086;-74
2021/04/11 04:43:16;;;;;;;;;;;;;;;5.73;96.51;100942.19;4105916;28;20110;-75
2021/04/11 04:45:34;;;;;;;21.15;13.38;;;;;;;5.78;96.61;100940.88;4105407;28;19985;-74
2021/04/11 04:47:48;;;;;;;25.35;13.18;;;;;;;5.79;95.12;100944.31;4105545;28;20042;-75
2021/04/11 04:50:01;;;;;;;19.80;13.82;;;;;;;5.80;96.36;100951.22;4105334;28;20042;-74
2021/04/11 04:52:08;;;;;;;20.52;13.30;;;;;;;5.91;95.53;100952.06;4105445;28;20097;-75
2021/04/11 04:54:34;;;;;;;23.85;14.35;;;;;;;5.85;95.37;100954.31;4105451;28;20403;-74
2021/04/11 04:56:41;;;;;;;23.95;14.13;;;;;;;5.93;94.13;100949.34;4105346;28;20035;-75
2021/04/11 04:58:59;;;;;;;21.23;14.25;;;;;;;5.80;94.40;100943.34;4105284;28;20027;-74
2021/04/11 05:01:22;;;;;;;17.50;12.98;;;;;;;5.82;95.18;100957.19;4104812;28;20570;-74
2021/04/11 05:03:34;;;;;;;16.92;12.95;;;;;;;5.71;96.43;100960.63;4104892;28;20367;-75
2021/04/11 05:05:45;;;;;;;21.58;14.30;;;;;;;5.69;95.17;100953.84;4105166;28;20158;-75
2021/04/11 05:08:14;;;;;;;18.42;13.55;;;;;;;5.70;95.52;100958.97;4105196;28;20039;-75
2021/04/11 05:10:24;;;;;;;22.27;13.63;;;;;;;5.68;94.75;100955.63;4105119;28;20045;-75
2021/04/11 05:13:00;;;;;;;19.50;13.27;;;;;;;5.65;96.72;100963.72;4105149;28;20470;-75
2021/04/11 05:15:13;;;;;;;;;;;;;;;5.53;97.86;100967.28;4105166;28;20102;-75
2021/04/11 05:17:38;;;;;;;22.05;12.82;;;;;;;5.56;96.24;100970.50;4104846;28;19945;-75
2021/04/11 05:19:41;;;;;;;;;;;;;;;5.58;97.20;100971.19;4120118;28;20035;-75
2021/04/11 05:21:57;;;;;;;17.55;12.30;;;;;;;5.55;96.69;100976.66;4105078;28;19966;-75
2021/04/11 05:24:11;;;;;;;21.10;12.55;;;;;;;5.57;96.79;100979.19;4104833;28;20027;-75
2021/04/11 05:26:44;;;;;;;17.13;12.48;;;;;;;5.61;96.70;100985.00;4104908;28;20050;-74
2021/04/11 05:28:56;;;;;;;17.80;12.27;;;;;;;5.59;96.58;100988.56;4104580;28;20050;-74
2021/04/11 05:31:24;;;;;;;18.75;11.88;;;;;;;5.49;96.31;100992.03;4104653;28;20035;-74
2021/04/11 05:33:26;;;;;;;17.13;12.00;;;;;;;5.53;96.59;100991.66;4119438;28;20034;-74
2021/04/11 05:35:31;;;;;;;18.08;11.85;;;;;;;5.57;96.98;100990.47;4104531;28;20131;-74
2021/04/11 05:37:41;;;;;;;16.90;12.05;;;;;;;5.70;96.49;101000.00;4119521;28;20023;-74
2021/04/11 05:39:49;;;;;;;15.35;11.13;;;;;;;5.90;94.97;101001.94;4104396;28;20535;-74
2021/04/11 05:42:14;;;;;;;15.43;11.80;;;;;;;6.09;93.40;101002.16;4104510;28;20037;-74
2021/04/11 05:44:31;;;;;;;18.05;11.50;;;;;;;6.10;94.46;101009.06;4104631;28;20043;-74
2021/04/11 05:46:59;;;;;;;17.63;12.80;;;;;;;6.13;94.13;101006.19;4104184;28;20031;-74
2021/04/11 05:49:03;;;;;;;15.88;12.57;;;;;;;6.18;93.44;101006.69;4104553;29;20031;-74
2021/04/11 05:51:07;;;;;;;;;;;;;;;6.16;94.31;101020.81;4104921;28;20054;-73
2021/04/11 05:53:24;;;;;;;17.85;11.50;;;;;;;6.26;92.81;101006.91;4119088;28;19917;-74
2021/04/11 05:55:29;;;;;;;19.73;11.13;;;;;;;6.24;93.25;101010.59;4104482;28;20031;-74
2021/04/11 05:57:45;;;;;;;15.93;11.13;;;;;;;6.16;95.04;101011.19;4104492;28;20525;-74
2021/04/11 06:00:05;;;;;;;17.08;11.25;;;;;;;6.25;94.98;101007.00;4104063;28;20028;-74
2021/04/11 06:02:53;;;;;;;16.83;11.68;;;;;;;6.42;95.18;101020.41;4104506;28;20035;-75
2021/04/11 06:05:02;;;;;;;13.55;11.38;;;;;;;6.58;93.46;101012.16;4103210;28;20046;-74
2021/04/11 06:07:50;;;;;;;17.00;10.93;;;;;;;6.54;93.60;101016.81;4118964;28;20541;-74
2021/04/11 06:10:26;;;;;;;16.08;11.00;;;;;;;6.25;94.37;101023.56;4102984;28;20051;-74
2021/04/11 06:12:34;;;;;;;13.73;10.77;;;;;;;6.15;96.26;101030.50;4104174;28;20027;-74
2021/04/11 06:15:02;;;;;;;16.48;11.45;;;;;;;6.36;94.53;101035.81;4103862;28;20035;-74
2021/04/11 06:17:11;;;;;;;16.17;11.63;;;;;;;6.29;94.97;101035.47;4104313;28;20090;-74
2021/04/11 06:19:12;;;;;;;16.00;12.82;;;;;;;6.33;95.57;101031.63;4104021;28;20394;-74
2021/04/11 06:21:39;;;;;;;14.32;10.90;;;;;;;6.36;95.75;101036.63;4104325;28;20158;-74
2021/04/11 06:23:52;;;;;;;13.75;11.00;;;;;;;6.44;95.35;101038.66;4118797;28;20466;-74
2021/04/11 06:26:16;;;;;;;15.57;11.27;;;;;;;6.34;95.29;101045.56;4118656;28;20453;-74
2021/04/11 06:28:43;;;;;;;12.40;8.80;;;;;;;6.39;95.56;101048.69;4103410;28;20058;-75
2021/04/11 06:30:59;;;;;;;14.13;10.40;;;;;;;6.48;95.16;101048.75;4103804;28;20521;-74
2021/04/11 06:33:15;;;;;;;17.30;11.95;;;;;;;6.13;95.31;101061.19;4104029;28;20031;-74
2021/04/11 06:35:24;;;;;;;16.30;12.10;;;;;;;6.26;95.07;101064.53;4103664;28;20041;-74
2021/04/11 06:37:28;;;;;;;20.25;12.23;;;;;;;6.38;95.49;101065.34;4103896;28;20091;-74
2021/04/11 06:39:33;;;;;;;;;;;;;;;6.47;96.07;101073.31;4104151;28;20495;-74
2021/04/11 06:41:53;;;;;;;15.68;10.77;;;;;;;6.53;95.35;101075.44;4103800;28;20309;-74
2021/04/11 06:44:12;;;;;;;14.90;10.90;;;;;;;6.47;95.82;101069.84;4118497;28;20039;-74
2021/04/11 06:46:54;;;;;;;17.35;11.52;;;;;;;6.68;94.94;101073.41;4103542;29;20483;-74
2021/04/11 06:49:25;;;;;;;15.88;11.25;;;;;;;6.68;93.78;101082.09;4094091;29;20054;-74
2021/04/11 06:51:47;;;;;;;18.20;11.43;;;;;;;6.59;93.88;101077.59;4103629;28;20039;-74
2021/04/11 06:54:07;;;;;;;12.70;10.50;;;;;;;6.71;96.15;101083.63;4118386;28;20098;-74
2021/04/11 06:56:38;;;;;;;16.38;11.70;;;;;;;6.83;95.25;101094.94;4103545;28;20035;-74
2021/04/11 06:58:45;;;;;;;15.95;11.38;;;;;;;6.95;94.53;101102.63;4118326;28;20035;-74
2021/04/11 07:00:58;;;;;;;15.30;10.95;;;;;;;6.90;93.60;101099.53;4103122;28;20050;-74
2021/04/11 07:03:32;;;;;;;17.58;10.52;;;;;;;6.98;93.15;101096.31;4103590;28;20110;-72
2021/04/11 07:05:48;;;;;;;14.82;10.65;;;;;;;7.03;93.59;101104.63;4103550;29;20402;-73
2021/04/11 07:07:55;;;;;;;15.15;9.45;;;;;;;6.93;92.97;101108.97;4118379;28;20034;-72
2021/04/11 07:10:28;;;;;;;16.50;9.60;;;;;;;7.00;93.83;101125.84;4099548;28;20114;-73
2021/04/11 07:13:11;;;;;;;12.88;10.05;;;;;;;7.01;93.00;101117.03;4101004;28;20255;-72
2021/04/11 07:15:25;;;;;;;12.20;9.40;;;;;;;7.01;93.20;101123.13;4102937;28;20039;-73
2021/04/11 07:17:41;;;;;;;11.55;9.52;;;;;;;7.05;93.62;101123.69;4103305;28;20570;-73
2021/04/11 07:20:09;;;;;;;14.07;9.50;;;;;;;6.99;92.78;101125.03;4103369;28;20035;-73
2021/04/11 07:22:47;;;;;;;14.10;10.02;;;;;;;7.00;92.72;101133.72;4103315;28;20035;-73
2021/04/11 07:25:23;;;;;;;14.88;9.05;;;;;;;7.15;92.75;101142.97;4103231;28;20038;-72
2021/04/11 07:28:02;;;;;;;13.63;10.35;;;;;;;7.18;92.17;101133.06;4103571;28;20114;-72
2021/04/11 07:30:22;;;;;;;13.55;9.73;;;;;;;7.25;92.43;101141.28;4103071;28;20031;-72
2021/04/11 07:32:26;;;;;;;11.75;8.57;;;;;;;7.24;93.05;101147.50;4103515;28;20041;-72
2021/04/11 07:34:33;;;;;;;16.65;10.30;;;;;;;7.30;92.58;101151.41;4103230;29;20040;-73
2021/04/11 07:36:43;;;;;;;11.35;9.18;;;;;;;7.29;94.10;101153.19;4100153;28;20035;-73
2021/04/11 07:39:14;;;;;;;14.25;10.02;;;;;;;7.47;92.85;101161.34;4089404;28;20122;-73
2021/04/11 07:41:49;;;;;;;12.55;9.20;;;;;;;7.71;91.40;101154.06;4104118;29;20050;-73
2021/04/11 07:44:29;;;;;;;13.80;9.82;;;;;;;7.81;90.99;101154.97;4101344;28;20403;-73
2021/04/11 07:46:36;;;;;;;13.57;9.95;;;;;;;7.91;91.48;101155.88;4093789;28;20035;-73
2021/04/11 07:48:53;;;;;;;11.70;8.70;;;;;;;8.01;91.63;101169.06;4102553;29;20091;-73
2021/04/11 07:51:03;;;;;;;13.40;9.02;;;;;;;8.22;91.98;101167.25;4099111;29;20038;-73
2021/04/11 07:53:18;;;;;;;11.70;9.02;;;;;;;8.30;90.71;101176.16;4105686;28;20039;-74
2021/04/11 07:55:39;;;;;;;12.73;8.50;;;;;;;8.34;89.74;101171.50;4105346;28;20027;-73
2021/04/11 07:57:49;;;;;;;8.88;7.57;;;;;;;8.28;90.02;101178.09;4105592;28;20447;-74
2021/04/11 08:00:22;;;;;;;9.77;8.30;;;;;;;8.21;89.80;101174.28;4105389;28;20503;-73
2021/04/11 08:02:44;;;;;;;7.85;6.65;;;;;;;8.07;88.75;101174.63;4105576;28;20418;-73
2021/04/11 08:05:08;;;;;;;10.25;7.40;;;;;;;8.13;90.77;101189.03;4103800;28;20031;-73
2021/04/11 08:07:25;;;;;;;9.75;6.82;;;;;;;8.13;89.37;101192.50;4122055;28;20043;-73
2021/04/11 08:09:53;;;;;;;8.48;6.20;;;;;;;7.99;88.79;101189.38;4105349;28;20031;-73
2021/04/11 08:12:09;;;;;;;6.45;5.60;;;;;;;7.96;88.25;101205.41;4105606;28;20162;-74
2021/04/11 08:14:47;;;;;;;9.57;6.03;;;;;;;7.78;89.49;101216.47;4104024;28;20407;-74
2021/04/11 08:17:09;;;;;;;5.45;4.93;;;;;;;7.67;88.63;101213.91;4105125;28;20036;-74
2021/04/11 08:19:20;;;;;;;8.65;5.05;;;;;;;7.78;89.05;101218.25;4105195;28;20503;-73
2021/04/11 08:21:36;;;;;;;6.45;5.63;;;;;;;7.47;89.10;101219.94;4120098;28;20034;-71
2021/04/11 08:23:45;;;;;;;6.65;4.85;;;;;;;7.47;88.74;101225.19;4105352;28;20032;-74
2021/04/11 08:26:14;;;;;;;7.78;5.10;;;;;;;7.45;90.11;101228.88;4098658;28;20442;-73
2021/04/11 08:28:32;;;;;;;7.13;4.80;;;;;;;7.18;90.09;101234.56;4104825;29;20027;-73
2021/04/11 08:30:55;;;;;;;6.97;5.63;;;;;;;7.09;91.94;101236.13;4104814;28;20043;-73
2021/04/11 08:33:21;;;;;;;5.55;4.97;;;;;;;7.14;92.15;101239.22;4104880;28;20056;-73
2021/04/11 08:35:41;;;;;;;7.00;4.88;;;;;;;7.27;91.98;101241.69;4104905;28;20031;-73
2021/04/11 08:38:08;;;;;;;6.20;4.32;;;;;;;7.21;90.50;101258.78;4105090;28;20098;-73
2021/04/11 08:40:47;;;;;;;6.15;3.95;;;;;;;6.90;91.31;101256.06;4104848;28;20130;-73
2021/04/11 08:43:20;;;;;;;4.65;3.78;;;;;;;7.03;91.50;101267.25;4119589;28;20030;-72
2021/04/11 08:45:42;;;;;;;4.32;3.25;;;;;;;6.82;90.17;101269.75;4097191;29;20047;-73
2021/04/11 08:48:23;;;;;;;3.72;3.15;;;;;;;6.69;91.25;101282.97;4104730;28;20502;-72
2021/04/11 08:50:44;;;;;;;4.03;3.50;;;;;;;6.57;91.29;101285.72;4099105;28;20047;-73
2021/04/11 08:53:04;;;;;;;3.22;2.85;;;;;;;6.65;92.64;101292.06;4105032;28;20106;-73
2021/04/11 08:55:14;;;;;;;2.60;2.28;;;;;;;6.57;92.91;101297.03;4104654;28;20031;-73
2021/04/11 08:57:37;;;;;;;3.08;2.50;;;;;;;6.30;92.53;101303.53;4119023;28;20054;-73
2021/04/11 08:59:55;;;;;;;3.03;2.72;;;;;;;6.13;92.32;101307.38;4104545;28;20035;-72
2021/04/11 09:02:28;;;;;;;3.60;2.60;;;;;;;5.89;92.55;101315.25;4104688;28;20406;-73
2021/04/11 09:04:51;;;;;;;2.47;2.22;;;;;;;6.25;93.90;101319.56;4119246;28;20059;-73
2021/04/11 09:07:17;;;;;;;3.45;3.15;;;;;;;6.38;93.11;101319.50;4119289;28;20038;-72
2021/04/11 09:09:39;;;;;;;3.15;2.65;;;;;;;6.27;91.44;101322.09;4104621;28;20039;-72
2021/04/11 09:12:04;;;;;;;3.28;2.47;;;;;;;6.37;92.35;101321.28;4104753;28;20038;-72
2021/04/11 09:14:41;;;;;;;4.20;2.92;;;;;;;6.28;91.12;101328.97;4104186;28;20027;-72
2021/04/11 09:17:09;;;;;;;3.17;2.78;;;;;;;6.34;90.97;101332.00;4104453;28;20039;-72
2021/04/11 09:19:23;;;;;;;5.18;2.97;;;;;;;6.36;92.49;101331.91;4104619;28;20031;-72
2021/04/11 09:21:55;;;;;;;3.03;2.72;;;;;;;6.23;91.57;101333.75;4104483;28;20035;-72
2021/04/11 09:24:13;;;;;;;4.53;3.00;;;;;;;6.38;91.44;101337.84;4104178;28;20036;-73
2021/04/11 09:26:45;;;;;;;3.30;3.05;;;;;;;5.98;92.50;101335.53;4104177;28;20035;-73
2021/04/11 09:28:58;;;;;;;3.00;2.63;;;;;;;5.66;94.00;101344.03;4104127;28;20023;-73
2021/04/11 09:31:32;;;;;;;4.18;2.75;;;;;;;5.82;93.14;101350.69;4104076;28;20035;-73
2021/04/11 09:34:05;;;;;;;3.20;2.83;;;;;;;5.70;93.00;101351.56;4104221;28;20043;-74
2021/04/11 09:36:37;;;;;;;3.88;2.75;;;;;;;6.02;93.13;101359.72;4104048;28;20035;-73
2021/04/11 09:39:00;;;;;;;2.90;2.50;;;;;;;5.95;91.99;101353.25;4103788;28;20051;-75
2021/04/11 09:41:39;;;;;;;2.85;2.40;;;;;;;6.22;91.98;101359.09;4104328;28;20122;-75
2021/04/11 09:43:47;;;;;;;4.60;2.53;;;;;;;6.33;91.57;101363.56;4103913;28;20110;-74
2021/04/11 09:45:54;;;;;;;2.80;2.58;;;;;;;5.95;93.90;101361.94;4103672;28;20050;-73
2021/04/11 09:48:20;;;;;;;7.82;3.53;;;;;;;5.97;93.40;101367.91;4103992;29;20073;-73
2021/04/11 09:50:39;;;;;;;3.03;2.72;;;;;;;5.99;93.48;101371.28;4104079;28;20065;-73
2021/04/11 09:52:59;;;;;;;3.20;2.80;;;;;;;6.04;93.37;101369.13;4103948;28;20043;-73
2021/04/11 09:55:12;;;;;;;3.13;2.70;;;;;;;6.19;91.39;101372.41;4103954;28;20035;-73
2021/04/11 09:57:56;;;;;;;3.60;2.95;;;;;;;5.99;92.69;101375.66;4103695;28;20035;-73
2021/04/11 10:00:46;;;;;;;3.63;3.28;;;;;;;6.40;93.18;101381.31;4103348;28;20502;-75
2021/04/11 10:03:16;;;;;;;2.92;2.70;;;;;;;7.04;92.13;101381.72;4085298;29;20388;-75
2021/04/11 10:05:24;;;;;;;3.35;2.70;;;;;;;7.24;91.24;101387.09;4103850;28;20031;-75
2021/04/11 10:07:46;;;;;;;3.33;2.85;;;;;;;7.39;88.93;101384.22;4103991;28;20034;-74
2021/04/11 10:09:47;;;;;;;2.97;2.67;;;;;;;7.29;90.26;101389.34;4103624;28;20035;-74
2021/04/11 10:11:54;;;;;;;3.60;2.53;;;;;;;7.75;89.48;101391.84;4103802;28;20046;-75
2021/04/11 10:14:20;;;;;;;3.05;2.72;;;;;;;7.76;89.56;101389.06;4118028;28;20122;-73
2021/04/11 10:16:32;;;;;;;2.63;2.42;;;;;;;7.55;86.89;101396.06;4103232;28;20083;-73
2021/04/11 10:19:03;;;;;;;3.35;2.80;;;;;;;7.71;88.26;101399.13;4103597;28;20039;-75
2021/04/11 10:21:39;;;;;;;3.00;2.42;;;;;;;7.00;89.53;101404.72;4103729;28;20039;-75